Arcadia, Illinois
Current Conditions -  °F | °C
As of 8:15 PM on Friday 28 Nov 2014 (Local Time) from KIJX Reporting Station
Clear Clear  
Wind Chill: 35°   Ceiling: Unl
Heat Index: 41°   Visibility: 10mi
Dew Point: 34°   Wind: 10mph
Humidity: 76%   Direction: 160°SSE
Pressure: 29.87"   Gusts: 16mph
Location:  39.7413°N, 90.2138°W
Report Text: KIJX 290215Z AUTO 16009G14KT 10SM CLR 05/01 A2987 RMK AO2 T00500010
Loading
Personal Weather Stations






























Interactive Weather Map New forecast layout! Learn more

10-Day Weather Forecast

Advertisements
Track Severe Weather on mobile